Time;durP1;ratioP1;P1;durP2;ratioP2;P2;SDS_P1;SDS_P2;PMS_P1;PMS_P2;Temp;Humidity;BMP_temperature;BMP_pressure;BME280_temperature;BME280_humidity;BME280_pressure;Samples;Min_cycle;Max_cycle;Signal;HPM_P1;HPM_P2
2022/09/23 00:01:45;;;;;;;;;;;11.60;81.10;;;;;;6096063;23;19917;-80
2022/09/23 00:04:12;;;;;;;;;;;11.70;80.90;;;;;;6119394;23;19928;-80
2022/09/23 00:06:39;;;;;;;;;;;11.70;81.30;;;;;;6118580;23;19917;-79
2022/09/23 00:09:06;;;;;;;;;;;11.70;81.90;;;;;;6119142;23;19996;-79
2022/09/23 00:11:33;;;;;;;;;;;11.70;81.10;;;;;;6119827;23;19917;-79
2022/09/23 00:14:00;;;;;;;;;;;11.70;80.80;;;;;;6118801;23;19927;-80
2022/09/23 00:16:28;;;;;;;;;;;11.70;81.60;;;;;;6119480;23;19943;-80
2022/09/23 00:18:55;;;;;;;;;;;11.70;80.90;;;;;;6118729;23;20263;-80
2022/09/23 00:21:21;;;;;;;;;;;11.70;81.00;;;;;;6119563;23;20335;-79
2022/09/23 00:23:48;;;;;;;;;;;11.70;81.50;;;;;;6118789;23;19951;-80
2022/09/23 00:26:16;;;;;;;;;;;11.70;81.60;;;;;;6118333;23;19923;-80
2022/09/23 00:28:43;;;;;;;;;;;11.70;82.10;;;;;;6118438;23;20334;-79
2022/09/23 00:31:11;;;;;;;;;;;11.60;82.60;;;;;;6119419;23;20417;-80
2022/09/23 00:33:39;;;;;;;;;;;11.60;82.20;;;;;;6118233;23;19960;-79
2022/09/23 00:36:07;;;;;;;;;;;11.60;82.30;;;;;;6119164;23;19917;-80
2022/09/23 00:38:34;;;;;;;;;;;11.70;81.90;;;;;;6119378;23;19988;-80
2022/09/23 00:41:01;;;;;;;;;;;11.70;82.00;;;;;;6118498;23;19992;-80
2022/09/23 00:43:39;;;;;;;;;;;11.70;82.70;;;;;;6119175;23;19921;-80
2022/09/23 00:46:07;;;;;;;;;;;11.70;81.90;;;;;;6095932;23;19920;-79
2022/09/23 00:48:36;;;;;;;;;;;11.70;81.50;;;;;;6119101;23;19988;-79
2022/09/23 00:51:03;;;;;;;;;;;11.70;82.00;;;;;;6118248;23;20246;-80
2022/09/23 00:53:30;;;;;;;;;;;11.70;81.70;;;;;;6119341;23;20004;-80
2022/09/23 00:56:00;;;;;;;;;;;11.70;81.20;;;;;;6118804;23;19943;-80
2022/09/23 00:58:30;;;;;;;;;;;11.70;81.60;;;;;;6119285;23;20385;-80
2022/09/23 01:01:01;;;;;;;;;;;11.60;82.50;;;;;;6118780;23;19921;-82
2022/09/23 01:03:28;;;;;;;;;;;11.60;82.20;;;;;;6119392;23;19941;-82
2022/09/23 01:05:56;;;;;;;;;;;11.60;81.80;;;;;;6118639;23;19917;-82
2022/09/23 01:08:23;;;;;;;;;;;11.60;82.00;;;;;;6119636;23;20305;-82
2022/09/23 01:11:05;;;;;;;;;;;11.60;81.70;;;;;;6118608;23;19951;-82
2022/09/23 01:13:41;;;;;;;;;;;11.60;82.10;;;;;;6119350;23;19996;-83
2022/09/23 01:16:19;;;;;;;;;;;11.70;82.40;;;;;;6118467;23;19924;-82
2022/09/23 01:19:12;;;;;;;;;;;11.70;82.40;;;;;;6118275;23;19994;-82
2022/09/23 01:21:51;;;;;;;;;;;11.70;82.50;;;;;;6094599;23;19951;-82
2022/09/23 01:24:31;;;;;;;;;;;11.70;82.50;;;;;;6118672;23;19957;-83
2022/09/23 01:27:03;;;;;;;;;;;11.70;83.40;;;;;;6118428;23;19987;-82
2022/09/23 01:29:48;;;;;;;;;;;11.70;83.10;;;;;;6119317;23;19917;-83
2022/09/23 01:32:19;;;;;;;;;;;11.80;83.40;;;;;;6118707;23;19917;-82
2022/09/23 01:34:48;;;;;;;;;;;11.80;82.80;;;;;;6118968;23;20250;-83
2022/09/23 01:37:15;;;;;;;;;;;11.90;83.00;;;;;;6094297;23;19917;-82
2022/09/23 01:40:02;;;;;;;;;;;11.90;82.50;;;;;;6119368;23;19988;-82
2022/09/23 01:42:33;;;;;;;;;;;12.10;78.20;;;;;;6051224;23;20250;-83
2022/09/23 01:45:15;;;;;;;;;;;12.30;75.60;;;;;;6119417;23;19937;-83
2022/09/23 01:47:49;;;;;;;;;;;12.40;74.40;;;;;;6118766;23;19966;-82
2022/09/23 01:53:10;;;;;;;;;;;12.80;71.80;;;;;;6095627;23;19976;-83
2022/09/23 01:55:40;;;;;;;;;;;13.00;70.60;;;;;;6119357;23;19917;-82
2022/09/23 01:58:09;;;;;;;;;;;13.10;69.90;;;;;;6094063;23;19945;-83
2022/09/23 02:00:39;;;;;;;;;;;13.20;69.30;;;;;;6119025;23;19996;-83
2022/09/23 02:03:09;;;;;;;;;;;13.30;68.70;;;;;;6118473;23;19988;-82
2022/09/23 02:05:38;;;;;;;;;;;13.30;68.10;;;;;;6119147;23;19943;-83
2022/09/23 02:08:07;;;;;;;;;;;13.40;67.50;;;;;;6118082;23;19917;-83
2022/09/23 02:10:46;;;;;;;;;;;13.50;67.60;;;;;;6119232;23;20001;-83
2022/09/23 02:13:19;;;;;;;;;;;13.50;68.40;;;;;;6095505;23;20307;-82
2022/09/23 02:15:48;;;;;;;;;;;13.50;67.10;;;;;;6119375;23;19921;-83
2022/09/23 02:18:20;;;;;;;;;;;13.50;66.70;;;;;;6118014;23;19921;-83
2022/09/23 02:20:49;;;;;;;;;;;13.60;66.10;;;;;;6119366;23;20318;-83
2022/09/23 02:23:19;;;;;;;;;;;13.60;65.60;;;;;;6095421;23;20344;-83
2022/09/23 02:25:55;;;;;;;;;;;13.70;65.60;;;;;;6119134;23;20257;-83
2022/09/23 02:28:47;;;;;;;;;;;13.70;65.00;;;;;;6065367;23;19989;-83
2022/09/23 02:31:20;;;;;;;;;;;13.70;65.00;;;;;;6065178;23;19921;-83
2022/09/23 02:33:56;;;;;;;;;;;13.70;65.00;;;;;;6067453;23;19917;-82
2022/09/23 02:36:52;;;;;;;;;;;13.80;64.70;;;;;;6107898;23;20311;-83
2022/09/23 02:39:21;;;;;;;;;;;13.80;64.70;;;;;;6083520;23;19925;-82
2022/09/23 02:41:54;;;;;;;;;;;13.80;64.90;;;;;;6120770;23;19917;-83
2022/09/23 02:44:22;;;;;;;;;;;13.80;64.20;;;;;;6119996;23;19992;-82
2022/09/23 02:46:52;;;;;;;;;;;13.80;64.10;;;;;;6120434;23;20349;-83
2022/09/23 02:49:20;;;;;;;;;;;13.90;63.90;;;;;;6119773;23;28143;-83
2022/09/23 02:51:47;;;;;;;;;;;13.90;63.80;;;;;;6120850;23;20228;-82
2022/09/23 02:54:16;;;;;;;;;;;13.90;63.60;;;;;;6119428;23;19945;-83
2022/09/23 02:56:43;;;;;;;;;;;13.90;63.70;;;;;;6120733;23;20357;-83
2022/09/23 02:59:11;;;;;;;;;;;13.90;63.70;;;;;;6095458;23;20000;-81
2022/09/23 03:01:56;;;;;;;;;;;13.90;63.60;;;;;;6120550;23;19989;-82
2022/09/23 03:04:38;;;;;;;;;;;13.90;63.60;;;;;;6119530;23;19921;-81
2022/09/23 03:07:31;;;;;;;;;;;13.90;63.50;;;;;;6096500;23;19921;-81
2022/09/23 03:10:03;;;;;;;;;;;13.90;63.80;;;;;;6089132;23;19917;-82
2022/09/23 03:12:42;;;;;;;;;;;13.90;63.40;;;;;;6119622;23;19972;-81
2022/09/23 03:15:15;;;;;;;;;;;13.90;63.50;;;;;;6119536;23;19948;-81
2022/09/23 03:17:45;;;;;;;;;;;13.90;63.10;;;;;;6119953;23;19917;-81
2022/09/23 03:20:17;;;;;;;;;;;14.00;62.80;;;;;;6096358;23;19999;-81
2022/09/23 03:22:45;;;;;;;;;;;14.00;62.70;;;;;;6120182;23;19921;-82
2022/09/23 03:25:14;;;;;;;;;;;14.00;62.80;;;;;;6119676;23;20235;-81
2022/09/23 03:27:42;;;;;;;;;;;14.00;63.00;;;;;;6096073;23;19944;-81
2022/09/23 03:30:09;;;;;;;;;;;13.90;63.10;;;;;;6119081;23;19945;-82
2022/09/23 03:32:37;;;;;;;;;;;14.00;63.10;;;;;;6119815;23;19996;-81
2022/09/23 03:35:04;;;;;;;;;;;13.90;63.00;;;;;;6119898;23;20056;-81
2022/09/23 03:37:33;;;;;;;;;;;14.00;62.80;;;;;;6119553;23;20307;-81
2022/09/23 03:40:07;;;;;;;;;;;13.90;62.70;;;;;;6097006;23;20020;-81
2022/09/23 03:42:34;;;;;;;;;;;14.00;62.70;;;;;;6094963;23;19916;-81
2022/09/23 03:45:04;;;;;;;;;;;13.90;62.80;;;;;;6119738;23;19917;-81
2022/09/23 03:47:31;;;;;;;;;;;14.00;62.80;;;;;;6096121;23;20000;-81
2022/09/23 03:49:58;;;;;;;;;;;14.00;62.30;;;;;;6119898;23;20032;-81
2022/09/23 03:52:25;;;;;;;;;;;14.00;63.00;;;;;;6118670;23;19923;-81
2022/09/23 03:54:52;;;;;;;;;;;14.00;62.80;;;;;;6119788;23;20361;-81
2022/09/23 03:57:20;;;;;;;;;;;14.00;62.60;;;;;;6118876;23;19941;-81
2022/09/23 03:59:49;;;;;;;;;;;13.90;62.80;;;;;;6119656;23;20314;-81
2022/09/23 04:02:16;;;;;;;;;;;13.90;62.70;;;;;;6119117;23;20364;-81
2022/09/23 04:04:43;;;;;;;;;;;14.00;62.90;;;;;;6120161;23;19917;-82
2022/09/23 04:07:10;;;;;;;;;;;14.00;63.30;;;;;;6119437;23;19925;-82
2022/09/23 04:09:37;;;;;;;;;;;13.90;63.00;;;;;;6119570;23;20326;-82
2022/09/23 04:12:04;;;;;;;;;;;14.00;62.60;;;;;;6119456;23;19928;-82
2022/09/23 04:14:31;;;;;;;;;;;14.00;62.20;;;;;;6095739;23;19940;-82
2022/09/23 04:16:58;;;;;;;;;;;14.00;62.40;;;;;;6119588;23;20403;-82
2022/09/23 04:19:24;;;;;;;;;;;14.00;62.20;;;;;;6118870;23;20261;-82
2022/09/23 04:21:51;;;;;;;;;;;14.00;62.10;;;;;;6095406;23;19992;-82
2022/09/23 04:24:18;;;;;;;;;;;14.00;62.00;;;;;;6119055;23;19949;-81
2022/09/23 04:26:45;;;;;;;;;;;14.00;62.00;;;;;;6096430;23;19941;-82
2022/09/23 04:29:11;;;;;;;;;;;14.00;61.90;;;;;;6094573;23;19988;-82
2022/09/23 04:31:38;;;;;;;;;;;14.00;61.60;;;;;;6119503;23;19917;-81
2022/09/23 04:34:05;;;;;;;;;;;13.90;62.10;;;;;;6119361;23;19921;-82
2022/09/23 04:36:32;;;;;;;;;;;13.90;62.00;;;;;;6118795;23;20245;-82
2022/09/23 04:38:59;;;;;;;;;;;13.90;61.70;;;;;;6119226;23;19988;-81
2022/09/23 04:41:26;;;;;;;;;;;13.90;61.70;;;;;;6118586;23;19921;-82
2022/09/23 04:43:53;;;;;;;;;;;13.90;61.60;;;;;;6119386;23;19917;-82
2022/09/23 04:46:19;;;;;;;;;;;13.90;61.90;;;;;;6118174;23;19917;-82
2022/09/23 04:48:46;;;;;;;;;;;13.80;62.30;;;;;;6119021;23;19984;-82
2022/09/23 04:51:17;;;;;;;;;;;13.80;62.00;;;;;;6118442;23;20242;-82
2022/09/23 04:53:45;;;;;;;;;;;13.90;62.00;;;;;;6118887;23;20262;-82
2022/09/23 04:56:13;;;;;;;;;;;13.90;62.10;;;;;;6119065;23;19988;-82
2022/09/23 04:58:40;;;;;;;;;;;13.80;62.00;;;;;;6118283;23;19996;-82
2022/09/23 05:01:16;;;;;;;;;;;13.80;62.10;;;;;;6118896;23;19917;-81
2022/09/23 05:03:44;;;;;;;;;;;13.80;61.90;;;;;;6118005;23;19921;-82
2022/09/23 05:06:14;;;;;;;;;;;13.90;61.70;;;;;;6119032;23;20339;-82
2022/09/23 05:08:45;;;;;;;;;;;13.90;61.60;;;;;;6118731;23;19992;-82
2022/09/23 05:11:12;;;;;;;;;;;13.90;61.70;;;;;;6119294;23;19988;-82
2022/09/23 05:13:38;;;;;;;;;;;13.90;61.60;;;;;;6095030;23;19932;-81
2022/09/23 05:16:06;;;;;;;;;;;13.90;61.70;;;;;;6118693;23;19953;-82
2022/09/23 05:18:34;;;;;;;;;;;13.90;61.70;;;;;;6117657;23;20290;-81
2022/09/23 05:21:01;;;;;;;;;;;13.90;61.90;;;;;;6094597;23;19927;-82
2022/09/23 05:23:28;;;;;;;;;;;13.90;62.00;;;;;;6118330;23;19917;-82
2022/09/23 05:25:56;;;;;;;;;;;13.90;61.70;;;;;;6118041;23;19949;-82
2022/09/23 05:28:23;;;;;;;;;;;13.90;61.60;;;;;;6118077;23;19988;-82
2022/09/23 05:30:52;;;;;;;;;;;13.90;61.50;;;;;;6106868;23;20334;-82
2022/09/23 05:33:19;;;;;;;;;;;13.90;62.00;;;;;;6118606;23;19948;-82
2022/09/23 05:35:46;;;;;;;;;;;13.90;62.50;;;;;;6117199;23;19921;-82
2022/09/23 05:38:15;;;;;;;;;;;13.90;62.40;;;;;;6117903;23;19948;-82
2022/09/23 05:40:42;;;;;;;;;;;13.90;62.20;;;;;;6117563;23;19948;-82
2022/09/23 05:43:09;;;;;;;;;;;13.90;62.10;;;;;;6119073;23;20326;-82
2022/09/23 05:45:36;;;;;;;;;;;13.90;62.30;;;;;;6119349;23;19921;-81
2022/09/23 05:48:03;;;;;;;;;;;13.90;61.80;;;;;;6118643;23;20094;-81
2022/09/23 05:50:29;;;;;;;;;;;14.00;62.40;;;;;;6117823;23;19939;-81
2022/09/23 05:52:56;;;;;;;;;;;14.00;62.00;;;;;;6118508;23;19917;-82
2022/09/23 05:55:23;;;;;;;;;;;14.00;62.30;;;;;;6118102;23;19917;-82
2022/09/23 05:57:49;;;;;;;;;;;14.00;62.00;;;;;;6095875;23;19988;-82
2022/09/23 06:00:16;;;;;;;;;;;14.10;62.00;;;;;;6118916;23;19999;-81
2022/09/23 06:02:43;;;;;;;;;;;14.10;61.70;;;;;;6119582;23;20047;-82
2022/09/23 06:05:11;;;;;;;;;;;14.20;60.70;;;;;;6119089;23;19944;-82
2022/09/23 06:07:37;;;;;;;;;;;14.30;60.20;;;;;;6120005;23;19924;-82
2022/09/23 06:10:05;;;;;;;;;;;14.30;60.10;;;;;;6120906;23;20281;-82
2022/09/23 06:12:33;;;;;;;;;;;14.40;59.90;;;;;;6120379;23;19917;-82
2022/09/23 06:15:00;;;;;;;;;;;14.50;59.90;;;;;;6120782;23;20452;-81
2022/09/23 06:17:27;;;;;;;;;;;14.50;60.00;;;;;;6119807;23;20008;-81
2022/09/23 06:19:53;;;;;;;;;;;14.50;59.70;;;;;;6119954;23;19991;-81
2022/09/23 06:22:22;;;;;;;;;;;14.60;60.20;;;;;;6120696;23;20388;-81
2022/09/23 06:24:49;;;;;;;;;;;14.60;59.60;;;;;;6119951;23;19996;-81
2022/09/23 06:27:16;;;;;;;;;;;14.60;59.60;;;;;;6120724;23;19928;-81
2022/09/23 06:29:42;;;;;;;;;;;14.70;60.00;;;;;;6119719;23;19924;-81
2022/09/23 06:32:09;;;;;;;;;;;14.70;61.00;;;;;;6120584;23;19921;-81
2022/09/23 06:34:36;;;;;;;;;;;14.70;59.90;;;;;;6119506;23;19921;-81
2022/09/23 06:37:16;;;;;;;;;;;14.80;59.70;;;;;;6117794;23;19945;-81
2022/09/23 06:39:46;;;;;;;;;;;14.80;59.70;;;;;;6119017;23;19926;-81
2022/09/23 06:42:15;;;;;;;;;;;14.90;60.00;;;;;;6120756;23;19992;-81
2022/09/23 06:44:42;;;;;;;;;;;14.90;59.70;;;;;;6119515;23;20254;-81
2022/09/23 06:47:08;;;;;;;;;;;15.00;59.70;;;;;;6119988;23;19991;-81
2022/09/23 06:49:35;;;;;;;;;;;15.00;59.60;;;;;;6095089;23;20467;-81
2022/09/23 06:52:03;;;;;;;;;;;15.10;59.40;;;;;;6120660;23;19995;-81
2022/09/23 06:54:30;;;;;;;;;;;15.10;58.90;;;;;;6094756;23;19988;-81
2022/09/23 06:56:57;;;;;;;;;;;15.20;59.00;;;;;;6120667;23;19997;-80
2022/09/23 06:59:24;;;;;;;;;;;15.20;59.20;;;;;;6118794;23;20254;-81
2022/09/23 07:01:50;;;;;;;;;;;15.20;58.50;;;;;;6119287;23;19921;-81
2022/09/23 07:04:17;;;;;;;;;;;15.30;58.40;;;;;;6120151;23;20235;-81
2022/09/23 07:06:44;;;;;;;;;;;15.40;59.20;;;;;;6119321;23;19991;-80
2022/09/23 07:09:11;;;;;;;;;;;15.40;59.80;;;;;;6119891;23;19921;-81
2022/09/23 07:11:38;;;;;;;;;;;15.50;59.60;;;;;;6119779;23;19940;-81
2022/09/23 07:14:05;;;;;;;;;;;15.60;58.90;;;;;;6120255;23;19944;-81
2022/09/23 07:16:32;;;;;;;;;;;15.70;58.90;;;;;;6119466;23;20358;-81
2022/09/23 07:18:59;;;;;;;;;;;15.80;57.70;;;;;;6118961;23;19917;-81
2022/09/23 07:21:26;;;;;;;;;;;15.80;57.30;;;;;;6095119;23;19928;-81
2022/09/23 07:23:54;;;;;;;;;;;16.00;58.90;;;;;;6119443;23;19924;-80
2022/09/23 07:26:21;;;;;;;;;;;16.00;61.10;;;;;;6119700;23;19921;-81
2022/09/23 07:28:52;;;;;;;;;;;16.00;59.30;;;;;;6119077;23;20000;-81
2022/09/23 07:31:18;;;;;;;;;;;16.10;58.90;;;;;;6096942;23;20231;-81
2022/09/23 07:34:02;;;;;;;;;;;16.00;59.00;;;;;;6116299;23;19951;-81
2022/09/23 07:36:32;;;;;;;;;;;16.10;59.50;;;;;;6119932;23;19945;-81
2022/09/23 07:39:02;;;;;;;;;;;16.10;60.00;;;;;;6095435;23;19924;-81
2022/09/23 07:41:30;;;;;;;;;;;16.20;59.80;;;;;;6119765;23;19964;-81
2022/09/23 07:43:58;;;;;;;;;;;16.20;59.20;;;;;;6119136;23;19940;-81
2022/09/23 07:46:26;;;;;;;;;;;16.30;59.70;;;;;;6119903;23;19928;-81
2022/09/23 07:48:54;;;;;;;;;;;16.30;59.10;;;;;;6118539;23;20286;-81
2022/09/23 07:51:22;;;;;;;;;;;16.40;59.40;;;;;;6120006;23;19927;-81
2022/09/23 07:53:50;;;;;;;;;;;16.50;59.30;;;;;;6094301;23;19917;-82
2022/09/23 07:56:18;;;;;;;;;;;16.40;56.90;;;;;;6096651;23;20323;-81
2022/09/23 07:58:45;;;;;;;;;;;16.40;58.00;;;;;;6118289;23;20378;-81
2022/09/23 08:01:12;;;;;;;;;;;16.30;58.10;;;;;;6119433;23;19984;-81
2022/09/23 08:03:39;;;;;;;;;;;16.30;57.70;;;;;;6095802;23;19996;-81
2022/09/23 08:06:07;;;;;;;;;;;16.40;57.80;;;;;;6119581;23;19921;-81
2022/09/23 08:08:34;;;;;;;;;;;16.50;58.70;;;;;;6119562;23;19944;-80
2022/09/23 08:11:05;;;;;;;;;;;16.60;58.20;;;;;;6118870;23;20331;-81
2022/09/23 08:13:32;;;;;;;;;;;16.70;58.40;;;;;;6097114;23;19917;-82
2022/09/23 08:15:59;;;;;;;;;;;16.80;57.70;;;;;;6119346;23;19917;-82
2022/09/23 08:18:26;;;;;;;;;;;16.70;58.30;;;;;;6119278;23;20250;-81
2022/09/23 08:20:53;;;;;;;;;;;16.60;59.30;;;;;;6118981;23;19992;-81
2022/09/23 08:23:19;;;;;;;;;;;16.50;58.90;;;;;;6120063;23;19937;-82
2022/09/23 08:25:46;;;;;;;;;;;16.50;59.10;;;;;;6118508;23;19944;-82
2022/09/23 08:28:15;;;;;;;;;;;16.70;58.20;;;;;;6120138;23;19948;-82
2022/09/23 08:30:43;;;;;;;;;;;16.80;58.50;;;;;;6118773;23;19941;-82
2022/09/23 08:33:11;;;;;;;;;;;16.70;57.50;;;;;;6118953;23;19921;-82
2022/09/23 08:35:37;;;;;;;;;;;16.80;57.90;;;;;;6120084;23;19967;-82
2022/09/23 08:38:05;;;;;;;;;;;16.90;58.70;;;;;;6118181;23;19917;-82
2022/09/23 08:40:42;;;;;;;;;;;17.10;58.20;;;;;;6119038;23;19959;-82
2022/09/23 08:43:22;;;;;;;;;;;17.20;57.30;;;;;;6095157;23;20287;-82
2022/09/23 08:45:51;;;;;;;;;;;17.30;55.60;;;;;;6119097;23;19917;-82
2022/09/23 08:48:22;;;;;;;;;;;17.20;55.80;;;;;;6118887;23;19944;-82
2022/09/23 08:50:53;;;;;;;;;;;17.30;56.00;;;;;;6119834;23;20302;-82
2022/09/23 08:53:28;;;;;;;;;;;17.20;55.40;;;;;;6120245;23;19917;-82
2022/09/23 08:55:56;;;;;;;;;;;17.30;54.80;;;;;;6119792;23;20297;-81
2022/09/23 08:58:33;;;;;;;;;;;17.50;54.80;;;;;;6120461;23;20258;-82
2022/09/23 09:01:18;;;;;;;;;;;17.60;53.90;;;;;;6119340;23;19947;-82
2022/09/23 09:03:48;;;;;;;;;;;17.60;53.90;;;;;;6119852;23;19918;-80
2022/09/23 09:06:17;;;;;;;;;;;17.70;54.00;;;;;;6095286;23;19917;-79
2022/09/23 09:08:46;;;;;;;;;;;17.90;54.20;;;;;;6097421;23;19997;-80
2022/09/23 09:11:14;;;;;;;;;;;17.90;53.70;;;;;;6097430;23;19917;-80
2022/09/23 09:13:47;;;;;;;;;;;18.00;54.70;;;;;;6122408;23;20338;-79
2022/09/23 09:16:14;;;;;;;;;;;18.20;54.30;;;;;;6120754;23;19987;-80
2022/09/23 09:18:47;;;;;;;;;;;18.30;54.50;;;;;;6095713;23;19921;-81
2022/09/23 09:21:14;;;;;;;;;;;18.30;52.50;;;;;;6093955;23;19917;-81
2022/09/23 09:23:55;;;;;;;;;;;18.50;53.00;;;;;;6118898;23;20303;-80
2022/09/23 09:26:22;;;;;;;;;;;18.50;51.90;;;;;;6094374;23;19999;-81
2022/09/23 09:28:51;;;;;;;;;;;18.60;52.20;;;;;;6118728;23;19918;-82
2022/09/23 09:31:31;;;;;;;;;;;18.50;52.60;;;;;;6117633;23;19925;-80
2022/09/23 09:34:06;;;;;;;;;;;18.60;51.30;;;;;;6117900;23;19988;-80
2022/09/23 09:36:37;;;;;;;;;;;18.80;51.30;;;;;;6118295;23;19983;-80
2022/09/23 09:39:03;;;;;;;;;;;18.80;51.20;;;;;;6117904;23;19917;-80
2022/09/23 09:41:30;;;;;;;;;;;18.80;50.20;;;;;;6118461;23;20030;-80
2022/09/23 09:43:59;;;;;;;;;;;18.90;50.50;;;;;;6118838;23;20279;-80
2022/09/23 09:46:49;;;;;;;;;;;19.10;50.00;;;;;;6118560;23;19981;-80
2022/09/23 09:49:30;;;;;;;;;;;19.00;49.10;;;;;;6117854;23;19921;-80
2022/09/23 09:52:13;;;;;;;;;;;18.70;47.90;;;;;;6118625;23;19921;-80
2022/09/23 09:54:40;;;;;;;;;;;18.90;49.50;;;;;;6117885;23;19944;-80
2022/09/23 09:57:15;;;;;;;;;;;19.10;48.10;;;;;;6118695;23;19921;-80
2022/09/23 09:59:43;;;;;;;;;;;19.20;48.10;;;;;;6117946;23;19924;-80
2022/09/23 10:02:33;;;;;;;;;;;19.50;48.10;;;;;;6118283;23;19921;-80
2022/09/23 10:05:01;;;;;;;;;;;19.40;47.50;;;;;;6087543;23;19971;-80
2022/09/23 10:07:31;;;;;;;;;;;19.60;47.80;;;;;;6118102;23;19918;-80
2022/09/23 10:10:10;;;;;;;;;;;19.60;47.20;;;;;;6093645;23;19917;-80
2022/09/23 10:13:01;;;;;;;;;;;19.60;46.90;;;;;;6114582;23;19924;-81
2022/09/23 10:15:30;;;;;;;;;;;19.40;47.50;;;;;;6118587;23;20300;-80
2022/09/23 10:18:00;;;;;;;;;;;19.60;46.60;;;;;;6117275;23;19917;-80
2022/09/23 10:20:37;;;;;;;;;;;19.90;46.30;;;;;;6096159;23;20259;-80
2022/09/23 10:23:05;;;;;;;;;;;20.10;46.10;;;;;;6117733;23;19936;-80
2022/09/23 10:25:33;;;;;;;;;;;20.20;44.90;;;;;;6118768;23;19917;-80
2022/09/23 10:28:20;;;;;;;;;;;20.30;44.70;;;;;;6117902;23;19956;-80
2022/09/23 10:31:03;;;;;;;;;;;20.40;45.20;;;;;;6118166;23;19992;-80
2022/09/23 10:33:30;;;;;;;;;;;20.60;43.70;;;;;;6095781;23;19917;-80
2022/09/23 10:35:57;;;;;;;;;;;20.70;42.90;;;;;;6117552;23;19928;-80
2022/09/23 10:38:24;;;;;;;;;;;20.70;42.90;;;;;;6094357;23;19956;-81
2022/09/23 10:47:08;;;;;;;;;;;20.90;43.10;;;;;;6047393;23;19949;-80
2022/09/23 10:49:35;;;;;;;;;;;20.70;43.50;;;;;;6091924;23;19992;-80
2022/09/23 10:52:21;;;;;;;;;;;20.80;42.50;;;;;;6118172;23;20315;-80
2022/09/23 10:54:56;;;;;;;;;;;20.80;44.30;;;;;;6118271;23;19917;-80
2022/09/23 10:57:41;;;;;;;;;;;20.90;44.30;;;;;;6118393;23;20000;-80
2022/09/23 11:00:27;;;;;;;;;;;21.30;42.90;;;;;;6118886;23;19921;-80
2022/09/23 11:03:03;;;;;;;;;;;21.20;42.30;;;;;;6099287;23;20011;-79
2022/09/23 11:05:35;;;;;;;;;;;21.50;43.30;;;;;;6119152;23;19924;-80
2022/09/23 11:08:31;;;;;;;;;;;21.30;43.30;;;;;;6095806;23;19924;-80
2022/09/23 11:11:08;;;;;;;;;;;21.50;42.30;;;;;;6076375;23;20034;-80
2022/09/23 11:14:04;;;;;;;;;;;21.40;41.40;;;;;;6118875;23;19917;-81
2022/09/23 11:16:43;;;;;;;;;;;21.00;41.80;;;;;;6083462;23;20361;-80
2022/09/23 11:19:13;;;;;;;;;;;20.60;42.90;;;;;;6118877;23;19920;-80
2022/09/23 11:21:59;;;;;;;;;;;21.00;43.40;;;;;;6096229;23;19917;-80
2022/09/23 11:24:32;;;;;;;;;;;21.40;41.60;;;;;;6119071;23;20440;-81
2022/09/23 11:27:11;;;;;;;;;;;21.60;40.80;;;;;;6119630;23;20330;-80
2022/09/23 11:29:41;;;;;;;;;;;21.30;40.80;;;;;;6119752;23;19987;-80
2022/09/23 11:32:28;;;;;;;;;;;21.00;42.90;;;;;;6121296;23;19921;-81
2022/09/23 11:34:58;;;;;;;;;;;21.10;41.70;;;;;;6096124;23;19941;-80
2022/09/23 11:37:37;;;;;;;;;;;20.90;42.50;;;;;;6120825;23;20323;-80
2022/09/23 11:40:11;;;;;;;;;;;21.10;42.20;;;;;;6122809;23;20000;-81
2022/09/23 11:42:40;;;;;;;;;;;21.40;41.00;;;;;;6122232;23;20247;-80
2022/09/23 11:45:13;;;;;;;;;;;21.00;41.10;;;;;;6097566;23;19937;-81
2022/09/23 11:47:50;;;;;;;;;;;21.10;40.70;;;;;;6121934;23;19952;-80
2022/09/23 11:50:17;;;;;;;;;;;20.60;41.30;;;;;;6121357;23;19917;-80
2022/09/23 11:52:47;;;;;;;;;;;20.50;43.20;;;;;;6122592;23;19944;-80
2022/09/23 11:55:16;;;;;;;;;;;20.70;42.80;;;;;;6119641;23;19941;-81
2022/09/23 11:58:12;;;;;;;;;;;20.90;42.60;;;;;;6119783;23;19917;-80
2022/09/23 12:01:06;;;;;;;;;;;20.90;41.10;;;;;;6092817;23;19968;-80
2022/09/23 12:03:33;;;;;;;;;;;20.90;40.60;;;;;;6122789;23;19971;-81
2022/09/23 12:06:14;;;;;;;;;;;21.10;41.50;;;;;;6120272;23;19921;-80
2022/09/23 12:08:42;;;;;;;;;;;21.10;41.70;;;;;;6122163;23;20000;-81
2022/09/23 12:11:28;;;;;;;;;;;21.30;41.20;;;;;;6123123;23;19917;-80
2022/09/23 12:14:13;;;;;;;;;;;21.30;41.20;;;;;;6122803;23;20334;-81
2022/09/23 12:16:42;;;;;;;;;;;21.40;40.00;;;;;;6120953;23;20356;-80
2022/09/23 12:19:19;;;;;;;;;;;21.40;40.70;;;;;;6121741;23;19991;-81
2022/09/23 12:22:09;;;;;;;;;;;21.50;40.60;;;;;;6095961;23;20368;-81
2022/09/23 12:24:54;;;;;;;;;;;21.50;40.70;;;;;;6088281;23;20357;-80
2022/09/23 12:27:27;;;;;;;;;;;21.20;41.20;;;;;;6120589;23;19920;-80
2022/09/23 12:29:56;;;;;;;;;;;21.60;41.90;;;;;;6120240;23;19940;-80
2022/09/23 12:32:24;;;;;;;;;;;21.40;40.80;;;;;;6096673;23;19931;-81
2022/09/23 12:34:51;;;;;;;;;;;21.60;41.20;;;;;;6095973;23;20433;-81
2022/09/23 12:37:23;;;;;;;;;;;21.90;40.70;;;;;;6120741;23;19921;-80
2022/09/23 12:39:50;;;;;;;;;;;22.00;39.60;;;;;;6122128;23;19992;-80
2022/09/23 12:42:18;;;;;;;;;;;22.00;40.00;;;;;;6124916;23;19917;-81
2022/09/23 12:44:46;;;;;;;;;;;21.70;40.10;;;;;;6123847;23;19945;-80
2022/09/23 12:47:13;;;;;;;;;;;21.60;40.20;;;;;;6099991;23;19941;-80
2022/09/23 12:49:41;;;;;;;;;;;21.50;41.90;;;;;;6121120;23;19952;-80
2022/09/23 12:52:11;;;;;;;;;;;21.40;40.90;;;;;;6120654;23;20008;-81
2022/09/23 12:54:38;;;;;;;;;;;21.40;40.70;;;;;;6122714;23;19957;-80
2022/09/23 12:57:38;;;;;;;;;;;21.30;41.00;;;;;;6119619;23;20301;-80
2022/09/23 13:00:14;;;;;;;;;;;21.30;40.80;;;;;;6051847;23;19917;-80
2022/09/23 13:06:37;;;;;;;;;;;21.30;41.50;;;;;;6118563;23;19921;-80
2022/09/23 13:08:40;;;;;;;;;;;21.40;40.50;;;;;;6093666;23;20257;-80
2022/09/23 13:11:16;;;;;;;;;;;21.60;41.20;;;;;;6119458;23;20000;-80
2022/09/23 13:13:44;;;;;;;;;;;21.70;41.10;;;;;;6096042;23;19923;-80
2022/09/23 13:16:23;;;;;;;;;;;21.90;40.50;;;;;;6120550;23;19933;-80
2022/09/23 13:18:53;;;;;;;;;;;22.00;40.70;;;;;;6120761;23;19917;-80
2022/09/23 13:21:40;;;;;;;;;;;22.00;39.90;;;;;;6096924;23;19917;-80
2022/09/23 13:24:18;;;;;;;;;;;21.90;40.70;;;;;;6081712;23;19952;-80
2022/09/23 13:26:47;;;;;;;;;;;21.80;40.70;;;;;;6097227;23;19956;-80
2022/09/23 13:29:33;;;;;;;;;;;21.80;40.50;;;;;;6122014;23;20327;-80
2022/09/23 13:32:04;;;;;;;;;;;21.80;38.50;;;;;;6122152;23;19925;-80
2022/09/23 13:34:33;;;;;;;;;;;21.70;39.60;;;;;;6127918;23;19921;-80
2022/09/23 13:37:18;;;;;;;;;;;21.60;39.90;;;;;;6125552;23;19917;-80
2022/09/23 13:39:48;;;;;;;;;;;21.60;39.00;;;;;;6125951;23;19928;-81
2022/09/23 13:42:26;;;;;;;;;;;21.70;39.10;;;;;;6129307;23;19917;-81
2022/09/23 13:44:59;;;;;;;;;;;21.70;39.80;;;;;;6127320;23;19965;-80
2022/09/23 13:47:27;;;;;;;;;;;21.80;39.30;;;;;;6127352;23;19944;-82
2022/09/23 13:49:54;;;;;;;;;;;21.80;39.10;;;;;;6123381;23;19949;-81
2022/09/23 13:52:23;;;;;;;;;;;21.50;38.60;;;;;;6126811;23;20024;-80
2022/09/23 13:54:50;;;;;;;;;;;21.60;40.00;;;;;;6127715;23;19942;-80
2022/09/23 13:57:23;;;;;;;;;;;21.50;40.20;;;;;;6127215;23;19992;-81
2022/09/23 13:59:50;;;;;;;;;;;21.40;39.60;;;;;;6126572;23;19924;-81
2022/09/23 14:02:17;;;;;;;;;;;21.20;40.70;;;;;;6127853;23;19985;-80
2022/09/23 14:04:44;;;;;;;;;;;21.20;41.30;;;;;;6129073;23;19948;-80
2022/09/23 14:07:13;;;;;;;;;;;21.20;40.60;;;;;;6127966;23;19921;-80
2022/09/23 14:09:41;;;;;;;;;;;21.10;41.10;;;;;;6127987;23;20254;-80
2022/09/23 14:12:09;;;;;;;;;;;21.20;40.90;;;;;;6125650;23;19918;-80
2022/09/23 14:14:37;;;;;;;;;;;21.30;40.60;;;;;;6105278;23;19948;-81
2022/09/23 14:17:04;;;;;;;;;;;21.40;40.40;;;;;;6128942;23;19965;-81
2022/09/23 14:19:32;;;;;;;;;;;21.50;39.70;;;;;;6128714;23;19923;-80
2022/09/23 14:21:59;;;;;;;;;;;21.50;40.90;;;;;;6100682;23;20314;-80
2022/09/23 14:24:33;;;;;;;;;;;21.60;40.30;;;;;;6124318;23;19952;-80
2022/09/23 14:27:08;;;;;;;;;;;21.70;40.10;;;;;;6120618;23;19921;-81
2022/09/23 14:29:36;;;;;;;;;;;21.70;39.60;;;;;;6124954;23;20241;-80
2022/09/23 14:32:05;;;;;;;;;;;21.90;40.90;;;;;;6125035;23;19988;-80
2022/09/23 14:34:39;;;;;;;;;;;22.10;40.00;;;;;;6124420;23;20354;-81
2022/09/23 14:40:15;;;;;;;;;;;21.90;38.90;;;;;;6102506;23;19991;-81
2022/09/23 14:42:45;;;;;;;;;;;21.90;38.20;;;;;;6124904;23;20011;-81
2022/09/23 14:45:23;;;;;;;;;;;21.90;37.90;;;;;;6098306;23;20239;-80
2022/09/23 14:48:08;;;;;;;;;;;22.00;39.00;;;;;;6085445;23;19923;-79
2022/09/23 14:50:35;;;;;;;;;;;22.20;39.20;;;;;;6124302;23;20343;-81
2022/09/23 14:53:03;;;;;;;;;;;22.10;38.60;;;;;;6124874;23;19924;-80
2022/09/23 14:55:30;;;;;;;;;;;22.10;39.30;;;;;;6129843;23;19939;-80